Time;durP1;ratioP1;P1;durP2;ratioP2;P2;SDS_P1;SDS_P2;PMS_P1;PMS_P2;Temp;Humidity;BMP_temperature;BMP_pressure;BME280_temperature;BME280_humidity;BME280_pressure;Samples;Min_cycle;Max_cycle;Signal;HPM_P1;HPM_P2
2022/05/24 00:01:24;;;;;;;10.30;5.57;;;13.20;99.90;;;;;;5058723;28;20507;-81
2022/05/24 00:03:50;;;;;;;7.75;6.15;;;13.20;99.90;;;;;;5060588;28;20545;-81
2022/05/24 00:06:16;;;;;;;9.02;6.82;;;13.10;99.90;;;;;;5062024;28;20074;-81
2022/05/24 00:08:42;;;;;;;9.30;6.10;;;13.80;99.90;;;;;;5061061;28;20131;-81
2022/05/24 00:11:08;;;;;;;9.25;6.63;;;13.00;99.90;;;;;;5055996;28;20033;-81
2022/05/24 00:13:33;;;;;;;9.02;6.60;;;13.00;99.90;;;;;;5058376;28;20041;-81
2022/05/24 00:15:59;;;;;;;11.02;7.18;;;13.00;99.90;;;;;;5061034;28;20044;-81
2022/05/24 00:18:28;;;;;;;10.00;6.47;;;12.90;99.90;;;;;;5060081;28;20136;-81
2022/05/24 00:21:00;;;;;;;12.98;6.65;;;12.90;99.90;;;;;;5058621;28;20040;-81
2022/05/24 00:23:28;;;;;;;13.85;6.47;;;12.90;99.90;;;;;;5059147;28;20045;-81
2022/05/24 00:25:56;;;;;;;9.13;6.07;;;13.00;99.90;;;;;;5041990;28;20477;-82
2022/05/24 00:28:25;;;;;;;10.18;6.32;;;12.90;99.90;;;;;;5061032;28;20045;-82
2022/05/24 00:30:51;;;;;;;7.47;5.72;;;12.90;99.90;;;;;;5059056;28;20036;-79
2022/05/24 00:33:17;;;;;;;8.98;5.82;;;12.90;99.90;;;;;;5039920;28;20059;-82
2022/05/24 00:35:44;;;;;;;5.72;5.13;;;12.90;99.90;;;;;;5057484;28;20037;-81
2022/05/24 00:38:13;;;;;;;6.63;4.88;;;12.80;99.90;;;;;;5060979;28;20044;-82
2022/05/24 00:40:41;;;;;;;4.32;3.97;;;13.90;99.90;;;;;;5044073;28;20101;-81
2022/05/24 00:43:25;;;;;;;8.05;4.45;;;12.80;99.90;;;;;;5043057;28;20484;-80
2022/05/24 00:45:54;;;;;;;6.57;4.93;;;12.70;99.90;;;;;;5060180;28;20126;-81
2022/05/24 00:48:43;;;;;;;5.45;4.95;;;12.70;99.90;;;;;;5056994;28;20037;-82
2022/05/24 00:51:10;;;;;;;9.98;4.32;;;12.60;99.90;;;;;;5039318;28;20048;-82
2022/05/24 00:53:45;;;;;;;8.57;4.70;;;12.60;99.90;;;;;;5056842;28;20124;-84
2022/05/24 00:56:21;;;;;;;8.25;5.10;;;12.50;99.90;;;;;;5057642;28;20037;-81
2022/05/24 00:58:50;;;;;;;6.05;4.53;;;12.50;99.90;;;;;;5058004;28;20041;-82
2022/05/24 01:01:40;;;;;;;7.78;4.60;;;12.40;99.90;;;;;;5058687;28;20120;-82
2022/05/24 01:04:11;;;;;;;6.28;4.68;;;12.40;99.90;;;;;;5050435;28;20524;-81
2022/05/24 01:06:38;;;;;;;6.78;5.78;;;12.40;99.90;;;;;;5057698;28;20108;-82
2022/05/24 01:09:08;;;;;;;8.73;5.20;;;12.30;99.90;;;;;;5060152;28;20044;-82
2022/05/24 01:11:38;;;;;;;5.90;5.20;;;12.30;99.90;;;;;;5060119;28;20038;-82
2022/05/24 01:14:04;;;;;;;10.35;5.32;;;12.40;99.90;;;;;;5056410;28;20045;-81
2022/05/24 01:16:30;;;;;;;7.70;5.65;;;12.30;99.90;;;;;;5058072;28;20122;-82
2022/05/24 01:18:56;;;;;;;10.30;5.72;;;12.20;99.90;;;;;;5059150;28;20477;-79
2022/05/24 01:21:22;;;;;;;6.95;5.07;;;12.20;99.90;;;;;;5043123;28;20124;-82
2022/05/24 01:23:53;;;;;;;7.93;5.70;;;12.20;99.90;;;;;;5046736;28;20037;-82
2022/05/24 01:26:32;;;;;;;9.05;5.50;;;12.20;99.90;;;;;;5057475;28;20072;-82
2022/05/24 01:29:00;;;;;;;9.07;5.35;;;12.20;99.90;;;;;;5056353;28;20044;-83
2022/05/24 01:36:09;;;;;;;8.20;5.55;;;12.20;99.90;;;;;;5059587;28;20131;-83
2022/05/24 01:37:04;;;;;;;8.80;5.60;;;12.10;99.90;;;;;;5059478;28;20089;-83
2022/05/24 01:39:30;;;;;;;9.77;5.70;;;12.20;99.90;;;;;;5043011;28;20101;-82
2022/05/24 01:41:57;;;;;;;5.45;4.57;;;12.10;99.90;;;;;;5040096;28;20037;-80
2022/05/24 01:44:34;;;;;;;7.38;5.60;;;12.10;99.90;;;;;;5039606;28;20041;-82
2022/05/24 01:47:00;;;;;;;7.13;5.53;;;12.20;99.90;;;;;;5057732;28;20217;-82
2022/05/24 01:49:31;;;;;;;6.10;5.20;;;12.10;99.90;;;;;;5058835;28;20165;-81
2022/05/24 01:52:25;;;;;;;11.85;6.32;;;12.10;99.90;;;;;;5138246;27;1195221;-81
2022/05/24 01:54:56;;;;;;;7.53;5.88;;;12.20;99.90;;;;;;5140660;27;20050;-82
2022/05/24 01:57:30;;;;;;;7.95;7.20;;;12.20;99.90;;;;;;5136493;27;20041;-82
2022/05/24 01:59:58;;;;;;;8.07;6.00;;;12.20;99.90;;;;;;5138243;27;20069;-82
2022/05/24 02:02:26;;;;;;;8.57;6.07;;;12.20;99.90;;;;;;5139740;27;20133;-83
2022/05/24 02:04:51;;;;;;;8.75;7.05;;;12.20;99.90;;;;;;5140243;27;20094;-80
2022/05/24 02:07:22;;;;;;;9.77;7.18;;;12.20;99.90;;;;;;5155275;27;20042;-82
2022/05/24 02:09:50;;;;;;;12.07;7.00;;;12.30;99.90;;;;;;5119535;27;20501;-83
2022/05/24 02:12:19;;;;;;;7.82;6.38;;;12.20;99.90;;;;;;5146229;27;20471;-84
2022/05/24 02:14:52;;;;;;;6.18;5.40;;;12.60;99.90;;;;;;5137396;27;20084;-82
2022/05/24 02:17:24;;;;;;;8.48;6.20;;;12.20;99.90;;;;;;5128372;27;20039;-83
2022/05/24 02:19:56;;;;;;;9.07;6.35;;;12.20;99.90;;;;;;5136992;27;20063;-83
2022/05/24 02:22:25;;;;;;;6.88;5.97;;;12.30;99.90;;;;;;5139855;27;20048;-83
2022/05/24 02:25:01;;;;;;;7.03;6.30;;;12.40;99.90;;;;;;5158219;27;20838;-83
2022/05/24 02:27:27;;;;;;;9.05;6.38;;;12.30;99.90;;;;;;5155387;27;20043;-83
2022/05/24 02:29:54;;;;;;;6.80;5.88;;;12.60;99.90;;;;;;5119454;27;20051;-83
2022/05/24 02:32:19;;;;;;;11.05;7.10;;;12.40;99.90;;;;;;5157546;27;20083;-83
2022/05/24 02:34:45;;;;;;;12.73;7.30;;;13.80;99.90;;;;;;5140324;27;20060;-80
2022/05/24 02:37:11;;;;;;;11.13;6.40;;;12.40;99.90;;;;;;5136696;27;20051;-83
2022/05/24 02:41:28;;;;;;;7.32;6.63;;;12.40;99.90;;;;;;5135951;27;20089;-84
2022/05/24 02:42:22;;;;;;;9.00;5.85;;;12.50;99.90;;;;;;5128821;27;20548;-83
2022/05/24 02:44:48;;;;;;;11.02;7.55;;;12.50;99.90;;;;;;5135657;27;20456;-84
2022/05/24 02:47:13;;;;;;;8.57;7.70;;;12.50;99.90;;;;;;5138877;27;20051;-81
2022/05/24 02:49:39;;;;;;;11.95;8.35;;;13.30;99.90;;;;;;5139601;27;20034;-84
2022/05/24 02:52:05;;;;;;;11.77;8.55;;;12.50;99.90;;;;;;5136133;27;20077;-83
2022/05/24 02:54:30;;;;;;;12.50;9.02;;;12.50;99.90;;;;;;5154845;27;20049;-83
2022/05/24 02:56:58;;;;;;;9.98;9.07;;;12.50;99.90;;;;;;5154899;27;20047;-80
2022/05/24 02:59:23;;;;;;;12.43;9.68;;;12.50;99.90;;;;;;5139048;27;20035;-83
2022/05/24 03:01:49;;;;;;;13.35;10.60;;;12.60;99.90;;;;;;5135682;27;20035;-83
2022/05/24 03:04:14;;;;;;;14.90;10.13;;;12.60;99.90;;;;;;5107727;27;20166;-83
2022/05/24 03:09:35;;;;;;;16.77;11.15;;;12.60;99.90;;;;;;5133443;27;20043;-83
2022/05/24 03:14:50;;;;;;;15.88;12.32;;;12.70;99.90;;;;;;5128901;27;20378;-84
2022/05/24 03:17:16;;;;;;;17.23;13.48;;;12.70;99.90;;;;;;5121838;27;20043;-81
2022/05/24 03:19:42;;;;;;;15.40;13.52;;;12.80;99.90;;;;;;5128156;27;20371;-82
2022/05/24 03:22:09;;;;;;;20.20;15.02;;;13.20;99.90;;;;;;5141040;27;20109;-82
2022/05/24 03:24:38;;;;;;;17.05;13.38;;;12.80;99.90;;;;;;5104636;27;20047;-81
2022/05/24 03:27:13;;;;;;;23.55;16.75;;;12.80;99.90;;;;;;5140555;27;20043;-82
2022/05/24 03:29:43;;;;;;;22.35;17.35;;;12.80;99.90;;;;;;5108405;27;20035;-82
2022/05/24 03:32:11;;;;;;;19.70;16.17;;;12.80;99.90;;;;;;5105822;27;20046;-82
2022/05/24 03:34:37;;;;;;;24.92;16.90;;;12.80;99.90;;;;;;5104655;27;20160;-83
2022/05/24 03:37:03;;;;;;;18.67;16.13;;;12.70;99.90;;;;;;5122602;27;20051;-82
2022/05/24 03:39:29;;;;;;;19.85;16.60;;;12.90;99.90;;;;;;5144183;27;20034;-83
2022/05/24 03:41:55;;;;;;;21.90;17.80;;;12.90;99.90;;;;;;5142527;27;20479;-82
2022/05/24 03:44:20;;;;;;;30.20;21.90;;;12.90;99.90;;;;;;5104723;27;20042;-83
2022/05/24 03:46:46;;;;;;;24.90;20.58;;;12.90;99.90;;;;;;5122156;27;20031;-83
2022/05/24 03:49:14;;;;;;;28.17;21.30;;;12.90;99.90;;;;;;5106111;27;20047;-81
2022/05/24 03:51:40;;;;;;;25.23;21.55;;;12.90;99.90;;;;;;5142993;27;20047;-82
2022/05/24 03:54:06;;;;;;;27.95;22.67;;;13.00;99.90;;;;;;5106122;27;20046;-83
2022/05/24 03:56:33;;;;;;;25.23;21.77;;;13.00;99.90;;;;;;5121094;27;20069;-83
2022/05/24 03:58:59;;;;;;;24.70;20.08;;;13.00;99.90;;;;;;5121066;27;20039;-84
2022/05/24 04:01:25;;;;;;;23.30;19.38;;;13.10;99.90;;;;;;5107508;27;20043;-82
2022/05/24 04:03:50;;;;;;;25.40;21.42;;;13.10;99.90;;;;;;5142927;27;20071;-82
2022/05/24 04:06:16;;;;;;;22.65;19.65;;;13.10;99.90;;;;;;5139985;27;20126;-82
2022/05/24 04:08:42;;;;;;;26.25;19.95;;;13.30;99.90;;;;;;5140119;27;20043;-84
2022/05/24 04:11:10;;;;;;;31.77;21.13;;;13.50;99.90;;;;;;5139502;27;20075;-83
2022/05/24 04:13:37;;;;;;;25.95;21.25;;;13.10;99.90;;;;;;5123899;27;20094;-83
2022/05/24 04:16:06;;;;;;;26.15;20.85;;;14.30;99.90;;;;;;5106001;27;20047;-82
2022/05/24 04:18:33;;;;;;;21.08;18.90;;;13.10;99.90;;;;;;5121474;27;20066;-83
2022/05/24 04:20:58;;;;;;;23.38;20.27;;;13.10;99.90;;;;;;5120395;27;20146;-84
2022/05/24 04:23:25;;;;;;;22.83;18.38;;;13.20;99.90;;;;;;5107130;27;20043;-83
2022/05/24 04:25:54;;;;;;;23.02;18.83;;;13.20;99.90;;;;;;5108045;27;20050;-84
2022/05/24 04:28:22;;;;;;;22.17;15.35;;;13.10;99.90;;;;;;5121195;27;20039;-84
2022/05/24 04:30:49;;;;;;;24.35;16.52;;;13.10;99.90;;;;;;5138281;27;20114;-83
2022/05/24 04:33:15;;;;;;;16.27;14.45;;;13.20;99.90;;;;;;5122426;27;20062;-82
2022/05/24 04:35:42;;;;;;;18.00;15.85;;;14.60;99.90;;;;;;5107435;27;20038;-83
2022/05/24 04:38:08;;;;;;;21.17;15.98;;;13.10;99.90;;;;;;5140848;27;20101;-85
2022/05/24 04:43:18;;;;;;;20.65;15.73;;;13.10;99.90;;;;;;5142289;27;20078;-82
2022/05/24 04:45:43;;;;;;;18.42;14.68;;;13.10;99.90;;;;;;5127243;27;20076;-82
2022/05/24 04:48:09;;;;;;;21.70;15.20;;;13.10;99.90;;;;;;5142601;27;20120;-84
2022/05/24 04:50:37;;;;;;;18.83;14.50;;;14.40;99.90;;;;;;5137208;27;20039;-84
2022/05/24 04:53:02;;;;;;;15.52;13.30;;;13.20;99.90;;;;;;5102304;27;20041;-83
2022/05/24 04:55:28;;;;;;;15.95;13.90;;;13.20;99.90;;;;;;5112575;27;20118;-84
2022/05/24 04:57:55;;;;;;;15.52;13.15;;;13.10;99.90;;;;;;5119882;27;20047;-83
2022/05/24 05:00:22;;;;;;;16.55;13.70;;;14.20;99.90;;;;;;5105086;27;20402;-84
2022/05/24 05:02:48;;;;;;;17.92;13.73;;;13.10;99.90;;;;;;5107159;27;20069;-84
2022/05/24 05:05:15;;;;;;;18.48;13.68;;;13.20;99.90;;;;;;5121234;27;20078;-84
2022/05/24 05:07:42;;;;;;;18.98;16.20;;;13.10;99.90;;;;;;5139256;27;20363;-84
2022/05/24 05:10:09;;;;;;;20.50;16.25;;;13.20;99.90;;;;;;5102384;27;20134;-85
2022/05/24 05:12:35;;;;;;;18.75;12.73;;;13.20;99.90;;;;;;5122148;27;20474;-84
2022/05/24 05:15:01;;;;;;;19.80;14.27;;;13.60;99.90;;;;;;5106278;27;20038;-83
2022/05/24 05:17:27;;;;;;;17.13;12.93;;;13.20;99.90;;;;;;5139273;27;20113;-84
2022/05/24 05:19:54;;;;;;;18.05;13.52;;;12.90;99.90;;;;;;5119220;27;20196;-81
2022/05/24 05:22:23;;;;;;;24.20;13.75;;;13.20;99.90;;;;;;5121125;27;20126;-84
2022/05/24 05:24:49;;;;;;;18.15;14.63;;;13.30;99.90;;;;;;5106165;27;20063;-84
2022/05/24 05:27:15;;;;;;;19.05;13.07;;;13.20;99.90;;;;;;5120638;27;20045;-83
2022/05/24 05:32:32;;;;;;;16.85;13.32;;;13.30;99.90;;;;;;5107366;27;20513;-81
2022/05/24 05:34:59;;;;;;;19.33;13.68;;;13.60;99.90;;;;;;5122217;27;20042;-85
2022/05/24 05:37:28;;;;;;;23.05;15.63;;;13.20;99.90;;;;;;5120768;27;20047;-81
2022/05/24 05:39:54;;;;;;;16.77;14.18;;;13.20;99.90;;;;;;5138483;27;20043;-79
2022/05/24 05:42:21;;;;;;;19.23;17.17;;;13.20;99.90;;;;;;5120345;27;20070;-79
2022/05/24 05:44:49;;;;;;;17.00;14.32;;;13.20;99.90;;;;;;5141946;27;20042;-80
2022/05/24 05:47:19;;;;;;;20.05;14.27;;;13.20;99.90;;;;;;5104681;27;20043;-83
2022/05/24 05:49:45;;;;;;;17.27;13.32;;;13.20;99.90;;;;;;5119002;28;20046;-82
2022/05/24 05:52:11;;;;;;;19.55;13.02;;;13.20;99.90;;;;;;5118695;27;20056;-82
2022/05/24 05:54:36;;;;;;;18.40;13.43;;;13.20;99.90;;;;;;5122456;27;20331;-81
2022/05/24 05:57:05;;;;;;;22.65;14.60;;;13.30;99.90;;;;;;5122610;27;20045;-82
2022/05/24 05:59:30;;;;;;;24.65;17.92;;;13.20;99.90;;;;;;5103020;27;20054;-81
2022/05/24 06:02:00;;;;;;;28.52;18.20;;;13.30;99.90;;;;;;5101348;28;20047;-81
2022/05/24 06:04:28;;;;;;;27.77;18.50;;;13.10;99.90;;;;;;5104570;27;20039;-81
2022/05/24 06:06:54;;;;;;;22.40;18.30;;;13.10;99.90;;;;;;5123110;27;20046;-81
2022/05/24 06:09:20;;;;;;;30.55;19.58;;;13.10;99.90;;;;;;5139061;27;20141;-81
2022/05/24 06:11:46;;;;;;;37.03;21.88;;;13.20;99.90;;;;;;5119343;28;20039;-81
2022/05/24 06:14:11;;;;;;;29.38;18.98;;;13.10;99.90;;;;;;5119339;28;20043;-81
2022/05/24 06:16:38;;;;;;;31.00;20.13;;;13.10;99.90;;;;;;5093264;28;20084;-81
2022/05/24 06:19:05;;;;;;;27.60;19.33;;;13.10;99.90;;;;;;5119419;28;20035;-81
2022/05/24 06:21:35;;;;;;;32.80;20.33;;;13.00;99.90;;;;;;5140054;27;20054;-81
2022/05/24 06:24:03;;;;;;;24.40;16.48;;;13.00;99.90;;;;;;5112512;27;20039;-80
2022/05/24 06:26:30;;;;;;;29.55;18.05;;;13.10;99.90;;;;;;5120021;27;20043;-79
2022/05/24 06:28:57;;;;;;;25.75;19.17;;;13.00;99.90;;;;;;5106068;28;20084;-79
2022/05/24 06:31:23;;;;;;;32.13;21.42;;;13.00;99.90;;;;;;5109295;27;20061;-79
2022/05/24 06:33:49;;;;;;;33.42;20.67;;;13.00;99.90;;;;;;5099995;28;20035;-80
2022/05/24 06:36:15;;;;;;;25.70;19.48;;;13.00;99.90;;;;;;5093028;27;20039;-80
2022/05/24 06:38:40;;;;;;;27.80;18.73;;;13.00;99.90;;;;;;5109940;27;20061;-82
2022/05/24 06:41:06;;;;;;;32.10;18.65;;;13.00;99.90;;;;;;5130372;27;20054;-78
2022/05/24 06:43:33;;;;;;;35.30;19.98;;;13.00;99.90;;;;;;5106751;27;20031;-78
2022/05/24 06:45:59;;;;;;;24.33;18.02;;;13.00;99.90;;;;;;5120447;27;20074;-79
2022/05/24 06:48:25;;;;;;;25.92;15.05;;;13.00;99.90;;;;;;5138138;27;20390;-78
2022/05/24 06:50:51;;;;;;;27.65;18.02;;;13.10;99.90;;;;;;5113360;27;20038;-78
2022/05/24 06:53:17;;;;;;;21.08;14.73;;;13.10;99.90;;;;;;5124646;27;20064;-78
2022/05/24 06:55:43;;;;;;;23.27;14.55;;;13.20;99.90;;;;;;5116370;27;20043;-80
2022/05/24 06:58:08;;;;;;;19.52;12.82;;;13.20;99.90;;;;;;5105408;28;20042;-80
2022/05/24 07:03:18;;;;;;;20.55;11.77;;;13.30;99.90;;;;;;5124870;27;20447;-78
2022/05/24 07:05:45;;;;;;;18.52;10.45;;;13.30;99.90;;;;;;5140936;27;20027;-83
2022/05/24 07:08:10;;;;;;;16.98;10.38;;;13.30;99.90;;;;;;5141294;27;20070;-81
2022/05/24 07:10:39;;;;;;;15.82;9.40;;;13.40;99.90;;;;;;5126160;27;20124;-79
2022/05/24 07:13:06;;;;;;;12.25;8.57;;;14.40;99.90;;;;;;5103830;27;20394;-80
2022/05/24 07:15:32;;;;;;;17.00;8.38;;;13.40;99.90;;;;;;5123619;27;20079;-80
2022/05/24 07:17:58;;;;;;;11.50;7.47;;;13.60;99.90;;;;;;5102611;27;20475;-80
2022/05/24 07:20:25;;;;;;;9.70;5.32;;;13.50;99.90;;;;;;5138017;27;20176;-78
2022/05/24 07:22:52;;;;;;;9.15;4.90;;;13.50;99.90;;;;;;5129098;27;20500;-81
2022/05/24 07:25:18;;;;;;;9.02;5.15;;;13.60;99.90;;;;;;5125303;27;20035;-81
2022/05/24 07:27:44;;;;;;;11.38;5.30;;;13.50;99.90;;;;;;5137595;27;20114;-80
2022/05/24 07:30:10;;;;;;;10.73;4.50;;;13.50;99.90;;;;;;5142196;27;20068;-80
2022/05/24 07:32:36;;;;;;;7.55;5.15;;;13.50;99.90;;;;;;5125103;27;20047;-79
2022/05/24 07:35:03;;;;;;;7.40;3.90;;;13.40;99.90;;;;;;5117450;27;20050;-80
2022/05/24 07:37:28;;;;;;;9.88;4.25;;;13.50;99.90;;;;;;5127695;27;20045;-79
2022/05/24 07:48:06;;;;;;;13.80;5.43;;;13.50;99.90;;;;;;5101464;27;20115;-82
2022/05/24 07:50:32;;;;;;;13.55;6.65;;;13.30;99.90;;;;;;5121277;27;20063;-82
2022/05/24 07:52:58;;;;;;;12.70;6.30;;;13.20;99.90;;;;;;5124196;27;20462;-81
2022/05/24 07:55:25;;;;;;;11.95;5.80;;;13.20;99.90;;;;;;5142962;27;20048;-81
2022/05/24 07:57:50;;;;;;;15.25;6.22;;;13.20;99.90;;;;;;5121703;27;20050;-82
2022/05/24 08:00:16;;;;;;;10.18;5.90;;;13.10;99.90;;;;;;5120833;27;20438;-82
2022/05/24 08:02:42;;;;;;;8.55;5.30;;;13.10;99.90;;;;;;5123322;27;20096;-82
2022/05/24 08:05:08;;;;;;;13.93;7.25;;;13.00;99.90;;;;;;5143299;27;20043;-80
2022/05/24 08:07:34;;;;;;;14.73;7.28;;;13.00;99.90;;;;;;5123583;27;20043;-82
2022/05/24 08:09:59;;;;;;;14.77;6.65;;;13.00;99.90;;;;;;5138901;27;20061;-81
2022/05/24 08:12:25;;;;;;;13.82;6.38;;;12.90;99.90;;;;;;5104400;27;20297;-81
2022/05/24 08:14:51;;;;;;;9.70;5.78;;;12.90;99.90;;;;;;5143244;27;20035;-82
2022/05/24 08:17:17;;;;;;;14.27;6.80;;;12.90;99.90;;;;;;5123635;27;20052;-81
2022/05/24 08:19:42;;;;;;;14.15;6.10;;;12.80;99.90;;;;;;5105231;27;20065;-81
2022/05/24 08:22:08;;;;;;;14.38;7.75;;;12.90;99.90;;;;;;5119308;27;20039;-81
2022/05/24 08:24:34;;;;;;;12.25;7.35;;;12.90;99.90;;;;;;5122300;27;20134;-82
2022/05/24 08:27:00;;;;;;;11.52;7.30;;;12.90;99.90;;;;;;5106904;27;20039;-81
2022/05/24 08:29:25;;;;;;;13.48;7.15;;;12.90;99.90;;;;;;5124009;27;20130;-81
2022/05/24 08:31:51;;;;;;;14.38;8.30;;;12.90;99.90;;;;;;5120676;27;20114;-81
2022/05/24 08:34:17;;;;;;;9.88;7.50;;;12.90;99.90;;;;;;5138925;27;20039;-82
2022/05/24 08:36:42;;;;;;;16.33;8.43;;;12.90;99.90;;;;;;5122359;27;20138;-83
2022/05/24 08:39:08;;;;;;;12.38;9.90;;;12.90;99.90;;;;;;5123862;27;20047;-82
2022/05/24 08:41:43;;;;;;;17.20;9.05;;;13.00;99.90;;;;;;5123374;27;20473;-82
2022/05/24 08:50:13;;;;;;;13.23;7.53;;;13.20;99.90;;;;;;5111896;27;20047;-81
2022/05/24 08:52:44;;;;;;;12.88;7.10;;;13.30;99.90;;;;;;5121399;27;20054;-80
2022/05/24 08:55:12;;;;;;;13.73;9.18;;;13.30;99.90;;;;;;5106395;27;20066;-82
2022/05/24 08:57:53;;;;;;;14.88;8.45;;;13.30;99.90;;;;;;5141100;27;20050;-82
2022/05/24 09:00:23;;;;;;;18.40;11.30;;;13.30;99.90;;;;;;5119722;27;20126;-82
2022/05/24 09:02:49;;;;;;;17.13;10.48;;;13.30;99.90;;;;;;5122664;27;20358;-81
2022/05/24 09:05:19;;;;;;;15.23;9.10;;;13.40;99.90;;;;;;5141483;27;20943;-81
2022/05/24 09:08:12;;;;;;;10.02;8.63;;;14.20;99.90;;;;;;5140345;27;20103;-80
2022/05/24 09:11:13;;;;;;;15.10;10.15;;;13.60;99.90;;;;;;5139625;27;20039;-81
2022/05/24 09:13:51;;;;;;;17.92;11.98;;;13.60;99.90;;;;;;5067039;27;20099;-82
2022/05/24 09:16:17;;;;;;;12.57;7.53;;;13.50;99.90;;;;;;5119784;27;20545;-80
2022/05/24 09:19:10;;;;;;;5.20;3.63;;;13.30;99.90;;;;;;5120841;27;20393;-80
2022/05/24 09:21:37;;;;;;;3.92;2.38;;;13.30;99.90;;;;;;5106198;27;20066;-82
2022/05/24 09:24:21;;;;;;;5.05;2.10;;;13.10;99.90;;;;;;5123981;27;20050;-80
2022/05/24 09:27:02;;;;;;;2.63;2.30;;;12.90;99.90;;;;;;5104035;27;20564;-82
2022/05/24 09:29:27;;;;;;;2.60;2.40;;;12.80;99.90;;;;;;5102910;27;20520;-81
2022/05/24 09:31:56;;;;;;;4.05;2.50;;;12.80;99.90;;;;;;5140621;27;20035;-83
2022/05/24 09:34:29;;;;;;;2.30;1.58;;;12.80;99.90;;;;;;5122876;27;20058;-82
2022/05/24 09:37:01;;;;;;;3.60;2.38;;;12.70;99.90;;;;;;5139001;27;20035;-82
2022/05/24 09:39:33;;;;;;;9.00;2.00;;;12.70;99.90;;;;;;5138004;27;20795;-81
2022/05/24 09:42:03;;;;;;;4.28;1.90;;;12.70;99.90;;;;;;5140426;27;20401;-81
2022/05/24 09:44:56;;;;;;;3.28;1.73;;;12.70;99.90;;;;;;5123357;27;20433;-81
2022/05/24 09:47:42;;;;;;;1.90;1.50;;;12.80;99.90;;;;;;5119291;27;20123;-81
2022/05/24 09:50:34;;;;;;;3.30;1.58;;;12.80;99.90;;;;;;5129659;27;20482;-82
2022/05/24 09:53:02;;;;;;;3.25;1.30;;;12.80;99.90;;;;;;5122266;27;20087;-81
2022/05/24 09:56:08;;;;;;;5.70;1.60;;;12.90;99.90;;;;;;5140877;27;20122;-81
2022/05/24 09:58:38;;;;;;;2.95;1.30;;;12.90;99.90;;;;;;5091778;27;20379;-81
2022/05/24 10:01:25;;;;;;;5.78;2.30;;;13.00;99.90;;;;;;5092924;28;20112;-81
2022/05/24 10:03:51;;;;;;;1.20;1.13;;;13.10;99.90;;;;;;5139749;27;20535;-81
2022/05/24 10:06:22;;;;;;;5.45;2.05;;;13.20;99.90;;;;;;5118323;28;20054;-81
2022/05/24 10:08:59;;;;;;;4.78;2.10;;;13.20;99.90;;;;;;5138679;27;20031;-82
2022/05/24 10:11:28;;;;;;;4.85;1.98;;;13.20;99.90;;;;;;5105719;27;20350;-81
2022/05/24 10:14:18;;;;;;;4.00;1.90;;;13.20;99.90;;;;;;5125032;27;20054;-82
2022/05/24 10:16:57;;;;;;;8.10;2.05;;;13.20;99.90;;;;;;5123240;27;20428;-82
2022/05/24 10:19:41;;;;;;;3.30;1.35;;;13.30;99.90;;;;;;5127500;27;20101;-81
2022/05/24 10:22:25;;;;;;;7.75;1.50;;;13.30;99.90;;;;;;5132539;27;20039;-81
2022/05/24 10:25:10;;;;;;;2.47;1.80;;;13.30;99.90;;;;;;5107586;27;20402;-82
2022/05/24 10:27:54;;;;;;;7.10;2.60;;;13.30;99.90;;;;;;5127032;27;20034;-81
2022/05/24 10:30:44;;;;;;;3.08;2.28;;;13.20;99.90;;;;;;5098531;27;20126;-82
2022/05/24 10:39:56;;;;;;;3.70;1.70;;;13.10;99.90;;;;;;5069120;28;20451;-80
2022/05/24 10:42:22;;;;;;;6.80;2.17;;;13.00;99.90;;;;;;5138583;27;20107;-80
2022/05/24 10:44:53;;;;;;;7.78;2.20;;;13.00;99.90;;;;;;5137386;27;20355;-81
2022/05/24 10:47:34;;;;;;;3.53;2.05;;;13.10;99.90;;;;;;5145106;27;20111;-80
2022/05/24 10:50:05;;;;;;;3.38;1.90;;;13.20;99.90;;;;;;5134896;27;20035;-82
2022/05/24 10:52:46;;;;;;;4.40;2.17;;;14.50;99.90;;;;;;5126187;27;20502;-83
2022/05/24 10:55:20;;;;;;;4.25;2.55;;;13.50;99.90;;;;;;5132872;27;20043;-82
2022/05/24 10:57:51;;;;;;;6.73;3.53;;;13.60;99.90;;;;;;5104895;27;20039;-81
2022/05/24 11:00:20;;;;;;;2.67;2.30;;;13.60;99.90;;;;;;5144192;27;20030;-80
2022/05/24 11:02:49;;;;;;;1.80;1.70;;;13.70;99.90;;;;;;5126356;27;20390;-80
2022/05/24 11:05:31;;;;;;;3.25;2.10;;;13.50;99.90;;;;;;5113804;27;20035;-80
2022/05/24 11:08:26;;;;;;;4.20;1.25;;;13.50;99.90;;;;;;5106291;27;20055;-80
2022/05/24 11:10:53;;;;;;;3.33;2.30;;;13.60;99.90;;;;;;5107625;27;20490;-80
2022/05/24 11:14:00;;;;;;;2.80;1.10;;;13.80;99.90;;;;;;5140796;27;20405;-80
2022/05/24 11:16:40;;;;;;;1.15;0.60;;;13.70;99.90;;;;;;5117238;27;20061;-80
2022/05/24 11:19:15;;;;;;;1.65;0.60;;;13.60;99.90;;;;;;5124049;27;20043;-80
2022/05/24 11:21:50;;;;;;;2.65;1.20;;;13.50;99.90;;;;;;5108556;27;20070;-80
2022/05/24 11:24:33;;;;;;;1.55;0.68;;;13.50;99.90;;;;;;5113701;27;20070;-81
2022/05/24 11:27:01;;;;;;;3.22;0.73;;;13.40;99.90;;;;;;5122696;27;20526;-81
2022/05/24 11:29:51;;;;;;;3.50;0.93;;;13.30;99.90;;;;;;5108631;27;20038;-81
2022/05/24 11:32:40;;;;;;;5.53;0.95;;;13.40;99.90;;;;;;5082519;27;20043;-80
2022/05/24 11:35:23;;;;;;;2.35;1.40;;;13.50;99.90;;;;;;5105660;27;20046;-80
2022/05/24 11:37:53;;;;;;;5.05;0.90;;;13.60;99.90;;;;;;5105168;27;20046;-80
2022/05/24 11:40:30;;;;;;;2.03;1.20;;;13.80;99.90;;;;;;5131197;27;20363;-81
2022/05/24 11:42:57;;;;;;;1.00;0.90;;;13.80;99.90;;;;;;5121932;27;20491;-81
2022/05/24 11:45:29;;;;;;;3.05;1.02;;;13.80;99.90;;;;;;5107996;27;20095;-80
2022/05/24 11:48:07;;;;;;;2.60;1.30;;;13.80;99.90;;;;;;5124230;27;20315;-80
2022/05/24 11:50:43;;;;;;;4.40;1.10;;;13.80;99.90;;;;;;5139782;27;20452;-81
2022/05/24 11:53:34;;;;;;;3.38;0.80;;;13.80;99.90;;;;;;5122540;27;20051;-81
2022/05/24 11:56:01;;;;;;;1.40;0.75;;;13.80;99.90;;;;;;5105747;27;20050;-80
2022/05/24 11:58:30;;;;;;;1.33;0.73;;;14.10;99.90;;;;;;5121891;27;20266;-80
2022/05/24 12:01:03;;;;;;;3.80;0.40;;;14.30;99.90;;;;;;5120110;27;20043;-80
2022/05/24 12:09:23;;;;;;;6.38;1.10;;;14.40;99.90;;;;;;5115609;27;20043;-80
2022/05/24 12:12:18;;;;;;;5.05;0.38;;;14.30;99.90;;;;;;5121069;27;20043;-80
2022/05/24 12:14:44;;;;;;;6.35;1.50;;;14.50;99.90;;;;;;5115830;27;20126;-82
2022/05/24 12:17:13;;;;;;;4.10;0.60;;;14.70;99.90;;;;;;5122738;27;20054;-81
2022/05/24 12:19:42;;;;;;;3.22;0.50;;;14.90;99.90;;;;;;5143174;27;20050;-80
2022/05/24 12:22:15;;;;;;;2.00;0.65;;;14.90;99.90;;;;;;5121883;27;20047;-81
2022/05/24 12:24:40;;;;;;;1.30;0.38;;;14.90;99.90;;;;;;5121370;27;20087;-81
2022/05/24 12:27:47;;;;;;;3.85;0.50;;;14.70;99.90;;;;;;5121847;27;20138;-80
2022/05/24 12:30:31;;;;;;;3.55;0.47;;;14.50;99.90;;;;;;5109645;27;20350;-81
2022/05/24 12:33:11;;;;;;;4.25;1.15;;;14.90;99.90;;;;;;5120287;27;20055;-80
2022/05/24 12:35:37;;;;;;;7.07;0.90;;;14.00;99.90;;;;;;5096756;27;20035;-80
2022/05/24 12:38:03;;;;;;;3.22;1.17;;;13.80;99.90;;;;;;5120980;27;20402;-80
2022/05/24 12:40:31;;;;;;;1.58;0.90;;;13.90;99.90;;;;;;5142720;27;20077;-80
2022/05/24 12:43:00;;;;;;;6.95;1.40;;;14.10;99.90;;;;;;5105894;27;20490;-80
2022/05/24 12:45:32;;;;;;;1.70;0.85;;;14.20;99.90;;;;;;5112543;27;20039;-80
2022/05/24 12:47:58;;;;;;;3.42;0.70;;;14.40;99.90;;;;;;5120197;27;20131;-80
2022/05/24 12:50:30;;;;;;;9.05;1.08;;;14.40;99.90;;;;;;5122394;27;20047;-80
2022/05/24 12:53:03;;;;;;;1.80;0.80;;;14.40;99.90;;;;;;5106658;27;20051;-81
2022/05/24 12:58:34;;;;;;;2.47;0.95;;;14.40;99.90;;;;;;5120910;27;20130;-80
2022/05/24 13:01:17;;;;;;;2.33;0.45;;;14.30;99.90;;;;;;5122316;27;20525;-79
2022/05/24 13:04:09;;;;;;;4.93;0.95;;;14.20;99.90;;;;;;5113639;27;20354;-79
2022/05/24 13:06:38;;;;;;;3.13;0.40;;;14.20;99.90;;;;;;5108484;27;20078;-78
2022/05/24 13:09:24;;;;;;;2.95;0.75;;;14.10;99.90;;;;;;5103127;27;20433;-79
2022/05/24 13:11:58;;;;;;;4.35;0.95;;;14.10;99.90;;;;;;5123078;27;20045;-79
2022/05/24 13:14:57;;;;;;;4.70;0.60;;;14.10;99.90;;;;;;5087334;27;20066;-79
2022/05/24 13:17:27;;;;;;;2.72;0.60;;;14.00;99.90;;;;;;5128801;27;20078;-78
2022/05/24 13:20:07;;;;;;;3.40;0.80;;;14.00;99.90;;;;;;5101919;27;20055;-80
2022/05/24 13:22:44;;;;;;;2.63;0.82;;;14.00;99.90;;;;;;5095563;27;20035;-79
2022/05/24 13:25:21;;;;;;;2.20;0.73;;;14.10;99.90;;;;;;5102393;27;20251;-79
2022/05/24 13:27:58;;;;;;;5.57;1.17;;;13.90;99.90;;;;;;5142389;27;20050;-79
2022/05/24 13:33:35;;;;;;;2.70;0.55;;;13.90;99.90;;;;;;5129635;27;20039;-80
2022/05/24 13:36:12;;;;;;;5.43;1.10;;;14.10;99.90;;;;;;5137861;27;20039;-80
2022/05/24 13:38:40;;;;;;;4.43;1.48;;;13.90;99.90;;;;;;5130104;27;20038;-80
2022/05/24 13:41:08;;;;;;;5.65;1.38;;;13.90;99.90;;;;;;5101771;27;20038;-79
2022/05/24 13:43:40;;;;;;;6.93;1.95;;;13.80;99.90;;;;;;5123583;27;20027;-80
2022/05/24 13:46:12;;;;;;;3.33;1.77;;;13.90;99.90;;;;;;5122012;27;20047;-81